sensor_id;sensor_type;location;lat;lon;timestamp;temperature;humidity
5364;DHT22;2705;41.410;2.160;2023-04-25T00:01:13;17.10;99.90
5364;DHT22;2705;41.410;2.160;2023-04-25T00:03:42;17.10;99.90
5364;DHT22;2705;41.410;2.160;2023-04-25T00:06:13;17.10;99.90
5364;DHT22;2705;41.410;2.160;2023-04-25T00:08:42;17.20;99.90
5364;DHT22;2705;41.410;2.160;2023-04-25T00:11:12;17.20;99.90
5364;DHT22;2705;41.410;2.160;2023-04-25T00:13:41;17.10;99.90
5364;DHT22;2705;41.410;2.160;2023-04-25T00:16:10;17.10;99.90
5364;DHT22;2705;41.410;2.160;2023-04-25T00:18:42;17.20;99.90
5364;DHT22;2705;41.410;2.160;2023-04-25T00:21:15;17.10;99.90
5364;DHT22;2705;41.410;2.160;2023-04-25T00:23:45;17.20;99.90
5364;DHT22;2705;41.410;2.160;2023-04-25T00:26:15;17.40;99.90
5364;DHT22;2705;41.410;2.160;2023-04-25T00:28:44;17.50;99.90
5364;DHT22;2705;41.410;2.160;2023-04-25T00:31:13;17.40;99.90
5364;DHT22;2705;41.410;2.160;2023-04-25T00:33:42;17.40;99.90
5364;DHT22;2705;41.410;2.160;2023-04-25T00:36:11;17.30;99.90
5364;DHT22;2705;41.410;2.160;2023-04-25T00:38:41;17.20;99.90
5364;DHT22;2705;41.410;2.160;2023-04-25T00:41:12;17.30;99.90
5364;DHT22;2705;41.410;2.160;2023-04-25T00:43:40;17.20;99.90
5364;DHT22;2705;41.410;2.160;2023-04-25T00:46:10;17.30;99.90
5364;DHT22;2705;41.410;2.160;2023-04-25T00:48:40;17.20;99.90
5364;DHT22;2705;41.410;2.160;2023-04-25T00:51:12;17.00;99.90
5364;DHT22;2705;41.410;2.160;2023-04-25T00:53:45;17.00;99.90
5364;DHT22;2705;41.410;2.160;2023-04-25T00:56:15;17.00;99.90
5364;DHT22;2705;41.410;2.160;2023-04-25T00:58:45;17.00;99.90
5364;DHT22;2705;41.410;2.160;2023-04-25T01:01:14;16.90;99.90
5364;DHT22;2705;41.410;2.160;2023-04-25T01:04:09;16.90;99.90
5364;DHT22;2705;41.410;2.160;2023-04-25T01:06:39;17.10;99.90
5364;DHT22;2705;41.410;2.160;2023-04-25T01:09:09;16.90;99.90
5364;DHT22;2705;41.410;2.160;2023-04-25T01:11:39;16.80;99.90
5364;DHT22;2705;41.410;2.160;2023-04-25T01:14:08;17.00;99.90
5364;DHT22;2705;41.410;2.160;2023-04-25T01:16:37;17.00;99.90
5364;DHT22;2705;41.410;2.160;2023-04-25T01:19:09;17.00;99.90
5364;DHT22;2705;41.410;2.160;2023-04-25T01:21:41;16.80;99.90
5364;DHT22;2705;41.410;2.160;2023-04-25T01:24:10;16.80;99.90
5364;DHT22;2705;41.410;2.160;2023-04-25T01:26:41;16.70;99.90
5364;DHT22;2705;41.410;2.160;2023-04-25T01:29:22;16.80;99.90
5364;DHT22;2705;41.410;2.160;2023-04-25T01:31:53;16.90;99.90
5364;DHT22;2705;41.410;2.160;2023-04-25T01:34:22;16.80;99.90
5364;DHT22;2705;41.410;2.160;2023-04-25T01:36:53;16.80;99.90
5364;DHT22;2705;41.410;2.160;2023-04-25T01:39:23;16.80;99.90
5364;DHT22;2705;41.410;2.160;2023-04-25T01:41:52;16.80;99.90
5364;DHT22;2705;41.410;2.160;2023-04-25T01:44:24;16.70;99.90
5364;DHT22;2705;41.410;2.160;2023-04-25T01:46:54;16.80;99.90
5364;DHT22;2705;41.410;2.160;2023-04-25T01:49:23;16.70;99.90
5364;DHT22;2705;41.410;2.160;2023-04-25T01:51:54;16.70;99.90
5364;DHT22;2705;41.410;2.160;2023-04-25T01:54:23;16.70;99.90
5364;DHT22;2705;41.410;2.160;2023-04-25T01:56:53;16.70;99.90
5364;DHT22;2705;41.410;2.160;2023-04-25T01:59:22;16.70;99.90
5364;DHT22;2705;41.410;2.160;2023-04-25T02:02:15;16.80;99.90
5364;DHT22;2705;41.410;2.160;2023-04-25T02:04:45;16.70;99.90
5364;DHT22;2705;41.410;2.160;2023-04-25T02:07:16;16.60;99.90
5364;DHT22;2705;41.410;2.160;2023-04-25T02:09:49;16.60;99.90
5364;DHT22;2705;41.410;2.160;2023-04-25T02:12:20;16.60;99.90
5364;DHT22;2705;41.410;2.160;2023-04-25T02:15:13;16.60;99.90
5364;DHT22;2705;41.410;2.160;2023-04-25T02:17:52;16.60;99.90
5364;DHT22;2705;41.410;2.160;2023-04-25T02:20:22;16.60;99.90
5364;DHT22;2705;41.410;2.160;2023-04-25T02:22:53;16.90;99.90
5364;DHT22;2705;41.410;2.160;2023-04-25T02:25:22;16.80;99.90
5364;DHT22;2705;41.410;2.160;2023-04-25T02:27:51;17.10;99.90
5364;DHT22;2705;41.410;2.160;2023-04-25T02:30:21;16.90;99.90
5364;DHT22;2705;41.410;2.160;2023-04-25T02:32:50;16.80;99.90
5364;DHT22;2705;41.410;2.160;2023-04-25T02:35:19;16.80;99.90
5364;DHT22;2705;41.410;2.160;2023-04-25T02:37:48;16.80;99.90
5364;DHT22;2705;41.410;2.160;2023-04-25T02:40:19;16.80;99.90
5364;DHT22;2705;41.410;2.160;2023-04-25T02:42:48;16.80;99.90
5364;DHT22;2705;41.410;2.160;2023-04-25T02:45:18;16.80;99.90
5364;DHT22;2705;41.410;2.160;2023-04-25T02:47:48;17.10;99.90
5364;DHT22;2705;41.410;2.160;2023-04-25T02:50:19;17.10;99.90
5364;DHT22;2705;41.410;2.160;2023-04-25T02:52:48;16.90;99.90
5364;DHT22;2705;41.410;2.160;2023-04-25T02:55:23;16.80;99.90
5364;DHT22;2705;41.410;2.160;2023-04-25T02:57:56;16.90;99.90
5364;DHT22;2705;41.410;2.160;2023-04-25T03:00:42;16.90;99.90
5364;DHT22;2705;41.410;2.160;2023-04-25T03:03:11;16.70;99.90
5364;DHT22;2705;41.410;2.160;2023-04-25T03:05:41;16.70;99.90
5364;DHT22;2705;41.410;2.160;2023-04-25T03:08:10;16.70;99.90
5364;DHT22;2705;41.410;2.160;2023-04-25T03:10:41;16.60;99.90
5364;DHT22;2705;41.410;2.160;2023-04-25T03:13:10;16.60;99.90
5364;DHT22;2705;41.410;2.160;2023-04-25T03:15:42;16.60;99.90
5364;DHT22;2705;41.410;2.160;2023-04-25T03:18:11;16.60;99.90
5364;DHT22;2705;41.410;2.160;2023-04-25T03:20:40;16.60;99.90
5364;DHT22;2705;41.410;2.160;2023-04-25T03:23:10;16.60;99.90
5364;DHT22;2705;41.410;2.160;2023-04-25T03:25:43;16.60;99.90
5364;DHT22;2705;41.410;2.160;2023-04-25T03:28:12;16.60;99.90
5364;DHT22;2705;41.410;2.160;2023-04-25T03:30:41;16.60;99.90
5364;DHT22;2705;41.410;2.160;2023-04-25T03:33:10;16.60;99.90
5364;DHT22;2705;41.410;2.160;2023-04-25T03:35:40;16.70;99.90
5364;DHT22;2705;41.410;2.160;2023-04-25T03:38:10;16.60;99.90
5364;DHT22;2705;41.410;2.160;2023-04-25T03:40:40;16.60;99.90
5364;DHT22;2705;41.410;2.160;2023-04-25T03:43:24;16.60;99.90
5364;DHT22;2705;41.410;2.160;2023-04-25T03:46:01;16.60;99.90
5364;DHT22;2705;41.410;2.160;2023-04-25T03:48:31;16.90;99.90
5364;DHT22;2705;41.410;2.160;2023-04-25T03:51:00;17.00;99.90
5364;DHT22;2705;41.410;2.160;2023-04-25T03:53:30;16.80;99.90
5364;DHT22;2705;41.410;2.160;2023-04-25T03:56:15;16.90;99.90
5364;DHT22;2705;41.410;2.160;2023-04-25T03:58:48;17.00;99.90
5364;DHT22;2705;41.410;2.160;2023-04-25T04:01:20;17.00;99.90
5364;DHT22;2705;41.410;2.160;2023-04-25T04:04:14;16.80;99.90
5364;DHT22;2705;41.410;2.160;2023-04-25T04:06:44;16.90;99.90
5364;DHT22;2705;41.410;2.160;2023-04-25T04:09:25;16.90;99.90
5364;DHT22;2705;41.410;2.160;2023-04-25T04:11:56;17.00;99.90
5364;DHT22;2705;41.410;2.160;2023-04-25T04:14:28;16.90;99.90
5364;DHT22;2705;41.410;2.160;2023-04-25T04:16:57;16.80;99.90
5364;DHT22;2705;41.410;2.160;2023-04-25T04:19:28;16.80;99.90
5364;DHT22;2705;41.410;2.160;2023-04-25T04:22:09;17.00;99.90
5364;DHT22;2705;41.410;2.160;2023-04-25T04:24:40;16.90;99.90
5364;DHT22;2705;41.410;2.160;2023-04-25T04:27:13;17.00;99.90
5364;DHT22;2705;41.410;2.160;2023-04-25T04:30:08;16.80;99.90
5364;DHT22;2705;41.410;2.160;2023-04-25T04:32:47;16.60;99.90
5364;DHT22;2705;41.410;2.160;2023-04-25T04:35:17;16.60;99.90
5364;DHT22;2705;41.410;2.160;2023-04-25T04:37:46;16.50;99.90
5364;DHT22;2705;41.410;2.160;2023-04-25T04:40:18;16.60;99.90
5364;DHT22;2705;41.410;2.160;2023-04-25T04:42:55;16.50;99.90
5364;DHT22;2705;41.410;2.160;2023-04-25T04:45:45;16.40;99.90
5364;DHT22;2705;41.410;2.160;2023-04-25T04:48:23;16.50;99.90
5364;DHT22;2705;41.410;2.160;2023-04-25T04:51:11;16.50;99.90
5364;DHT22;2705;41.410;2.160;2023-04-25T04:54:07;16.50;99.90
5364;DHT22;2705;41.410;2.160;2023-04-25T04:56:45;16.50;99.90
5364;DHT22;2705;41.410;2.160;2023-04-25T04:59:17;16.60;99.90
5364;DHT22;2705;41.410;2.160;2023-04-25T05:02:09;16.50;99.90
5364;DHT22;2705;41.410;2.160;2023-04-25T05:04:51;16.50;99.90
5364;DHT22;2705;41.410;2.160;2023-04-25T05:07:51;16.50;99.90
5364;DHT22;2705;41.410;2.160;2023-04-25T05:10:43;16.50;99.90
5364;DHT22;2705;41.410;2.160;2023-04-25T05:13:32;16.60;99.90
5364;DHT22;2705;41.410;2.160;2023-04-25T05:16:15;16.50;99.90
5364;DHT22;2705;41.410;2.160;2023-04-25T05:18:59;16.50;99.90
5364;DHT22;2705;41.410;2.160;2023-04-25T05:21:45;16.50;99.90
5364;DHT22;2705;41.410;2.160;2023-04-25T05:24:37;16.70;99.90
5364;DHT22;2705;41.410;2.160;2023-04-25T05:27:26;16.60;99.90
5364;DHT22;2705;41.410;2.160;2023-04-25T05:30:24;16.70;99.90
5364;DHT22;2705;41.410;2.160;2023-04-25T05:33:22;16.90;99.90
5364;DHT22;2705;41.410;2.160;2023-04-25T05:35:53;16.90;99.90
5364;DHT22;2705;41.410;2.160;2023-04-25T05:38:23;16.90;99.90
5364;DHT22;2705;41.410;2.160;2023-04-25T05:41:12;16.80;99.90
5364;DHT22;2705;41.410;2.160;2023-04-25T05:43:46;16.90;99.90
5364;DHT22;2705;41.410;2.160;2023-04-25T05:46:35;16.70;99.90
5364;DHT22;2705;41.410;2.160;2023-04-25T05:49:20;16.60;99.90
5364;DHT22;2705;41.410;2.160;2023-04-25T05:52:00;16.70;99.90
5364;DHT22;2705;41.410;2.160;2023-04-25T05:54:55;16.70;99.90
5364;DHT22;2705;41.410;2.160;2023-04-25T05:57:26;16.70;99.90
5364;DHT22;2705;41.410;2.160;2023-04-25T05:59:56;16.80;99.90
5364;DHT22;2705;41.410;2.160;2023-04-25T06:02:39;16.80;99.90
5364;DHT22;2705;41.410;2.160;2023-04-25T06:05:11;16.90;99.90
5364;DHT22;2705;41.410;2.160;2023-04-25T06:07:42;16.90;99.90
5364;DHT22;2705;41.410;2.160;2023-04-25T06:10:12;17.10;99.90
5364;DHT22;2705;41.410;2.160;2023-04-25T06:12:42;17.10;99.90
5364;DHT22;2705;41.410;2.160;2023-04-25T06:15:13;17.20;99.90
5364;DHT22;2705;41.410;2.160;2023-04-25T06:17:55;17.30;99.90
5364;DHT22;2705;41.410;2.160;2023-04-25T06:20:24;17.20;99.90
5364;DHT22;2705;41.410;2.160;2023-04-25T06:22:58;17.30;99.90
5364;DHT22;2705;41.410;2.160;2023-04-25T06:25:53;17.30;99.90
5364;DHT22;2705;41.410;2.160;2023-04-25T06:28:24;17.30;99.90
5364;DHT22;2705;41.410;2.160;2023-04-25T06:30:53;17.30;99.90
5364;DHT22;2705;41.410;2.160;2023-04-25T06:33:22;17.30;99.90
5364;DHT22;2705;41.410;2.160;2023-04-25T06:35:53;17.40;99.90
5364;DHT22;2705;41.410;2.160;2023-04-25T06:38:27;17.50;99.90
5364;DHT22;2705;41.410;2.160;2023-04-25T06:40:57;17.60;99.90
5364;DHT22;2705;41.410;2.160;2023-04-25T06:43:30;17.70;99.90
5364;DHT22;2705;41.410;2.160;2023-04-25T06:46:19;17.60;99.90
5364;DHT22;2705;41.410;2.160;2023-04-25T06:48:49;17.60;99.90
5364;DHT22;2705;41.410;2.160;2023-04-25T06:51:19;17.50;99.90
5364;DHT22;2705;41.410;2.160;2023-04-25T06:53:55;17.60;99.90
5364;DHT22;2705;41.410;2.160;2023-04-25T06:56:37;17.70;99.90
5364;DHT22;2705;41.410;2.160;2023-04-25T06:59:14;17.80;99.90
5364;DHT22;2705;41.410;2.160;2023-04-25T07:01:45;18.00;99.90
5364;DHT22;2705;41.410;2.160;2023-04-25T07:04:18;18.10;99.90
5364;DHT22;2705;41.410;2.160;2023-04-25T07:06:54;18.20;99.90
5364;DHT22;2705;41.410;2.160;2023-04-25T07:09:33;18.10;99.90
5364;DHT22;2705;41.410;2.160;2023-04-25T07:12:03;18.20;99.90
5364;DHT22;2705;41.410;2.160;2023-04-25T07:14:33;18.10;99.90
5364;DHT22;2705;41.410;2.160;2023-04-25T07:17:03;18.30;99.90
5364;DHT22;2705;41.410;2.160;2023-04-25T07:19:34;18.50;99.90
5364;DHT22;2705;41.410;2.160;2023-04-25T07:22:06;18.60;99.90
5364;DHT22;2705;41.410;2.160;2023-04-25T07:24:39;18.50;99.90
5364;DHT22;2705;41.410;2.160;2023-04-25T07:27:12;18.40;99.90
5364;DHT22;2705;41.410;2.160;2023-04-25T07:30:11;18.30;99.90
5364;DHT22;2705;41.410;2.160;2023-04-25T07:32:41;18.10;99.90
5364;DHT22;2705;41.410;2.160;2023-04-25T07:35:10;18.50;99.90
5364;DHT22;2705;41.410;2.160;2023-04-25T07:37:40;18.60;99.90
5364;DHT22;2705;41.410;2.160;2023-04-25T07:40:16;18.40;99.90
5364;DHT22;2705;41.410;2.160;2023-04-25T07:42:50;18.50;99.90
5364;DHT22;2705;41.410;2.160;2023-04-25T07:45:29;18.60;99.90
5364;DHT22;2705;41.410;2.160;2023-04-25T07:47:58;18.90;99.90
5364;DHT22;2705;41.410;2.160;2023-04-25T07:50:29;18.80;99.90
5364;DHT22;2705;41.410;2.160;2023-04-25T07:52:59;18.70;99.90
5364;DHT22;2705;41.410;2.160;2023-04-25T07:55:35;18.90;99.90
5364;DHT22;2705;41.410;2.160;2023-04-25T07:58:13;19.00;99.90
5364;DHT22;2705;41.410;2.160;2023-04-25T08:00:45;18.90;99.90
5364;DHT22;2705;41.410;2.160;2023-04-25T08:03:29;18.80;99.90
5364;DHT22;2705;41.410;2.160;2023-04-25T08:05:59;19.00;99.90
5364;DHT22;2705;41.410;2.160;2023-04-25T08:08:40;19.10;99.90
5364;DHT22;2705;41.410;2.160;2023-04-25T08:11:14;19.50;99.90
5364;DHT22;2705;41.410;2.160;2023-04-25T08:13:43;19.50;99.90
5364;DHT22;2705;41.410;2.160;2023-04-25T08:16:12;19.60;99.90
5364;DHT22;2705;41.410;2.160;2023-04-25T08:18:42;19.60;99.90
5364;DHT22;2705;41.410;2.160;2023-04-25T08:21:11;19.30;99.90
5364;DHT22;2705;41.410;2.160;2023-04-25T08:23:42;19.40;99.90
5364;DHT22;2705;41.410;2.160;2023-04-25T08:26:24;19.20;99.90
5364;DHT22;2705;41.410;2.160;2023-04-25T08:28:53;19.30;99.90
5364;DHT22;2705;41.410;2.160;2023-04-25T08:31:23;19.30;99.90
5364;DHT22;2705;41.410;2.160;2023-04-25T08:33:57;19.70;99.90
5364;DHT22;2705;41.410;2.160;2023-04-25T08:36:32;19.90;99.90
5364;DHT22;2705;41.410;2.160;2023-04-25T08:39:26;20.10;99.90
5364;DHT22;2705;41.410;2.160;2023-04-25T08:42:21;19.70;99.90
5364;DHT22;2705;41.410;2.160;2023-04-25T08:44:53;19.60;99.90
5364;DHT22;2705;41.410;2.160;2023-04-25T08:47:28;19.70;99.90
5364;DHT22;2705;41.410;2.160;2023-04-25T08:50:00;19.60;99.90
5364;DHT22;2705;41.410;2.160;2023-04-25T08:52:35;19.70;99.90
5364;DHT22;2705;41.410;2.160;2023-04-25T08:55:07;19.90;99.90
5364;DHT22;2705;41.410;2.160;2023-04-25T08:57:41;19.60;99.90
5364;DHT22;2705;41.410;2.160;2023-04-25T09:00:12;19.60;99.90
5364;DHT22;2705;41.410;2.160;2023-04-25T09:02:43;19.90;99.90
5364;DHT22;2705;41.410;2.160;2023-04-25T09:05:13;19.60;99.90
5364;DHT22;2705;41.410;2.160;2023-04-25T09:07:44;19.80;99.90
5364;DHT22;2705;41.410;2.160;2023-04-25T09:10:17;20.10;99.90
5364;DHT22;2705;41.410;2.160;2023-04-25T09:13:03;20.10;99.90
5364;DHT22;2705;41.410;2.160;2023-04-25T09:15:50;20.10;99.90
5364;DHT22;2705;41.410;2.160;2023-04-25T09:18:40;20.40;99.90
5364;DHT22;2705;41.410;2.160;2023-04-25T09:21:15;20.30;99.90
5364;DHT22;2705;41.410;2.160;2023-04-25T09:23:48;20.50;99.90
5364;DHT22;2705;41.410;2.160;2023-04-25T09:26:20;20.50;99.90
5364;DHT22;2705;41.410;2.160;2023-04-25T09:29:05;20.80;99.90
5364;DHT22;2705;41.410;2.160;2023-04-25T09:31:38;20.90;99.90
5364;DHT22;2705;41.410;2.160;2023-04-25T09:34:10;21.10;99.90
5364;DHT22;2705;41.410;2.160;2023-04-25T09:36:50;21.00;99.90
5364;DHT22;2705;41.410;2.160;2023-04-25T09:39:39;21.40;99.90
5364;DHT22;2705;41.410;2.160;2023-04-25T09:42:14;21.20;99.90
5364;DHT22;2705;41.410;2.160;2023-04-25T09:44:46;21.40;99.90
5364;DHT22;2705;41.410;2.160;2023-04-25T09:47:16;21.00;99.90
5364;DHT22;2705;41.410;2.160;2023-04-25T09:49:45;21.00;99.90
5364;DHT22;2705;41.410;2.160;2023-04-25T09:52:16;21.10;99.90
5364;DHT22;2705;41.410;2.160;2023-04-25T09:54:55;21.00;99.90
5364;DHT22;2705;41.410;2.160;2023-04-25T09:57:30;21.20;99.90
5364;DHT22;2705;41.410;2.160;2023-04-25T10:00:02;21.00;99.90
5364;DHT22;2705;41.410;2.160;2023-04-25T10:02:43;20.90;99.90
5364;DHT22;2705;41.410;2.160;2023-04-25T10:05:43;21.10;99.90
5364;DHT22;2705;41.410;2.160;2023-04-25T10:08:13;21.40;99.90
5364;DHT22;2705;41.410;2.160;2023-04-25T10:10:44;21.60;99.90
5364;DHT22;2705;41.410;2.160;2023-04-25T10:13:14;21.70;99.90
5364;DHT22;2705;41.410;2.160;2023-04-25T10:15:46;21.70;99.90
5364;DHT22;2705;41.410;2.160;2023-04-25T10:18:16;21.70;99.90
5364;DHT22;2705;41.410;2.160;2023-04-25T10:20:47;21.70;99.90
5364;DHT22;2705;41.410;2.160;2023-04-25T10:23:17;21.60;99.90
5364;DHT22;2705;41.410;2.160;2023-04-25T10:25:48;22.00;99.90
5364;DHT22;2705;41.410;2.160;2023-04-25T10:28:18;21.90;99.90
5364;DHT22;2705;41.410;2.160;2023-04-25T10:30:59;21.70;99.90
5364;DHT22;2705;41.410;2.160;2023-04-25T10:33:33;21.80;99.90
5364;DHT22;2705;41.410;2.160;2023-04-25T10:36:10;22.30;99.90
5364;DHT22;2705;41.410;2.160;2023-04-25T10:38:41;22.30;99.90
5364;DHT22;2705;41.410;2.160;2023-04-25T10:41:12;22.30;99.90
5364;DHT22;2705;41.410;2.160;2023-04-25T10:43:42;22.20;99.90
5364;DHT22;2705;41.410;2.160;2023-04-25T10:46:22;22.40;99.90
5364;DHT22;2705;41.410;2.160;2023-04-25T10:48:52;22.40;99.90
5364;DHT22;2705;41.410;2.160;2023-04-25T10:51:23;22.30;99.90
5364;DHT22;2705;41.410;2.160;2023-04-25T10:54:00;22.70;99.90
5364;DHT22;2705;41.410;2.160;2023-04-25T10:56:31;23.00;99.90
5364;DHT22;2705;41.410;2.160;2023-04-25T10:59:06;23.00;99.90
5364;DHT22;2705;41.410;2.160;2023-04-25T11:02:09;22.80;99.90
5364;DHT22;2705;41.410;2.160;2023-04-25T11:05:23;22.40;99.90
5364;DHT22;2705;41.410;2.160;2023-04-25T11:08:43;22.60;99.90
5364;DHT22;2705;41.410;2.160;2023-04-25T11:12:11;22.70;99.90
5364;DHT22;2705;41.410;2.160;2023-04-25T11:15:17;23.10;99.90
5364;DHT22;2705;41.410;2.160;2023-04-25T11:18:26;23.10;99.90
5364;DHT22;2705;41.410;2.160;2023-04-25T11:21:31;22.70;99.90
5364;DHT22;2705;41.410;2.160;2023-04-25T11:24:00;23.30;99.90
5364;DHT22;2705;41.410;2.160;2023-04-25T11:26:30;23.60;99.90
5364;DHT22;2705;41.410;2.160;2023-04-25T11:28:59;23.50;99.90
5364;DHT22;2705;41.410;2.160;2023-04-25T11:31:29;23.60;99.90
5364;DHT22;2705;41.410;2.160;2023-04-25T11:34:00;23.30;99.90
5364;DHT22;2705;41.410;2.160;2023-04-25T11:36:30;22.70;99.90
5364;DHT22;2705;41.410;2.160;2023-04-25T11:38:59;22.50;99.90
5364;DHT22;2705;41.410;2.160;2023-04-25T11:41:29;22.20;99.90
5364;DHT22;2705;41.410;2.160;2023-04-25T11:43:59;22.20;99.90
5364;DHT22;2705;41.410;2.160;2023-04-25T11:46:28;22.50;99.90
5364;DHT22;2705;41.410;2.160;2023-04-25T11:48:57;22.50;99.90
5364;DHT22;2705;41.410;2.160;2023-04-25T11:51:28;22.20;99.90
5364;DHT22;2705;41.410;2.160;2023-04-25T11:53:57;22.40;99.90
5364;DHT22;2705;41.410;2.160;2023-04-25T11:56:26;22.30;99.90
5364;DHT22;2705;41.410;2.160;2023-04-25T11:58:57;22.60;99.90
5364;DHT22;2705;41.410;2.160;2023-04-25T12:01:29;22.00;99.90
5364;DHT22;2705;41.410;2.160;2023-04-25T12:04:12;22.40;99.90
5364;DHT22;2705;41.410;2.160;2023-04-25T12:06:44;22.50;99.90
5364;DHT22;2705;41.410;2.160;2023-04-25T12:09:16;22.20;99.90
5364;DHT22;2705;41.410;2.160;2023-04-25T12:11:47;22.20;99.90
5364;DHT22;2705;41.410;2.160;2023-04-25T12:14:23;22.00;99.90
5364;DHT22;2705;41.410;2.160;2023-04-25T12:16:56;22.30;99.90
5364;DHT22;2705;41.410;2.160;2023-04-25T12:19:29;22.20;99.90
5364;DHT22;2705;41.410;2.160;2023-04-25T12:22:02;21.60;99.90
5364;DHT22;2705;41.410;2.160;2023-04-25T12:24:34;21.70;99.90
5364;DHT22;2705;41.410;2.160;2023-04-25T12:27:06;21.70;99.90
5364;DHT22;2705;41.410;2.160;2023-04-25T12:29:36;21.40;99.90
5364;DHT22;2705;41.410;2.160;2023-04-25T12:32:16;21.40;99.90
5364;DHT22;2705;41.410;2.160;2023-04-25T12:34:46;21.10;99.90
5364;DHT22;2705;41.410;2.160;2023-04-25T12:37:16;20.70;99.90
5364;DHT22;2705;41.410;2.160;2023-04-25T12:39:46;21.20;99.90
5364;DHT22;2705;41.410;2.160;2023-04-25T12:42:15;21.00;99.90
5364;DHT22;2705;41.410;2.160;2023-04-25T12:44:45;21.20;99.90
5364;DHT22;2705;41.410;2.160;2023-04-25T12:47:14;21.10;99.90
5364;DHT22;2705;41.410;2.160;2023-04-25T12:49:43;20.60;99.90
5364;DHT22;2705;41.410;2.160;2023-04-25T12:52:12;20.90;99.90
5364;DHT22;2705;41.410;2.160;2023-04-25T12:54:43;21.10;99.90
5364;DHT22;2705;41.410;2.160;2023-04-25T12:57:12;21.50;99.90
5364;DHT22;2705;41.410;2.160;2023-04-25T12:59:41;21.40;99.90
5364;DHT22;2705;41.410;2.160;2023-04-25T13:02:10;21.40;99.90
5364;DHT22;2705;41.410;2.160;2023-04-25T13:04:40;21.30;99.90
5364;DHT22;2705;41.410;2.160;2023-04-25T13:07:09;21.30;99.90
5364;DHT22;2705;41.410;2.160;2023-04-25T13:09:38;21.20;99.90
5364;DHT22;2705;41.410;2.160;2023-04-25T13:12:09;21.20;99.90
5364;DHT22;2705;41.410;2.160;2023-04-25T13:14:38;21.60;99.90
5364;DHT22;2705;41.410;2.160;2023-04-25T13:17:07;21.40;99.90
5364;DHT22;2705;41.410;2.160;2023-04-25T13:19:37;21.10;99.90
5364;DHT22;2705;41.410;2.160;2023-04-25T13:22:06;21.40;99.90
5364;DHT22;2705;41.410;2.160;2023-04-25T13:24:35;21.70;99.90
5364;DHT22;2705;41.410;2.160;2023-04-25T13:27:04;21.60;99.90
5364;DHT22;2705;41.410;2.160;2023-04-25T13:29:35;21.60;99.90
5364;DHT22;2705;41.410;2.160;2023-04-25T13:32:06;21.90;99.90
5364;DHT22;2705;41.410;2.160;2023-04-25T13:34:35;21.90;99.90
5364;DHT22;2705;41.410;2.160;2023-04-25T13:37:04;21.70;99.90
5364;DHT22;2705;41.410;2.160;2023-04-25T13:39:33;21.50;99.90
5364;DHT22;2705;41.410;2.160;2023-04-25T13:42:03;21.20;99.90
5364;DHT22;2705;41.410;2.160;2023-04-25T13:44:32;21.20;99.90
5364;DHT22;2705;41.410;2.160;2023-04-25T13:47:03;21.20;99.90
5364;DHT22;2705;41.410;2.160;2023-04-25T13:49:32;21.50;99.90
5364;DHT22;2705;41.410;2.160;2023-04-25T13:52:02;21.50;99.90
5364;DHT22;2705;41.410;2.160;2023-04-25T13:54:31;21.40;99.90
5364;DHT22;2705;41.410;2.160;2023-04-25T13:57:01;21.50;99.90
5364;DHT22;2705;41.410;2.160;2023-04-25T13:59:30;22.10;99.90
5364;DHT22;2705;41.410;2.160;2023-04-25T14:01:59;22.00;99.90
5364;DHT22;2705;41.410;2.160;2023-04-25T14:04:30;21.70;99.90
5364;DHT22;2705;41.410;2.160;2023-04-25T14:07:00;22.30;99.90
5364;DHT22;2705;41.410;2.160;2023-04-25T14:09:29;22.90;99.90
5364;DHT22;2705;41.410;2.160;2023-04-25T14:11:59;23.10;99.90
5364;DHT22;2705;41.410;2.160;2023-04-25T14:14:29;23.10;99.90
5364;DHT22;2705;41.410;2.160;2023-04-25T14:16:58;23.10;99.90
5364;DHT22;2705;41.410;2.160;2023-04-25T14:19:27;22.70;99.90
5364;DHT22;2705;41.410;2.160;2023-04-25T14:21:58;22.90;99.90
5364;DHT22;2705;41.410;2.160;2023-04-25T14:24:28;23.00;99.90
5364;DHT22;2705;41.410;2.160;2023-04-25T14:26:57;23.10;99.90
5364;DHT22;2705;41.410;2.160;2023-04-25T14:29:28;23.10;99.90
5364;DHT22;2705;41.410;2.160;2023-04-25T14:31:58;22.40;99.90
5364;DHT22;2705;41.410;2.160;2023-04-25T14:34:27;22.30;99.90
5364;DHT22;2705;41.410;2.160;2023-04-25T14:36:58;22.40;99.90
5364;DHT22;2705;41.410;2.160;2023-04-25T14:39:28;22.50;99.90
5364;DHT22;2705;41.410;2.160;2023-04-25T14:41:57;22.40;99.90
5364;DHT22;2705;41.410;2.160;2023-04-25T14:44:26;22.20;99.90
5364;DHT22;2705;41.410;2.160;2023-04-25T14:46:56;22.70;99.90
5364;DHT22;2705;41.410;2.160;2023-04-25T14:49:26;22.90;99.90
5364;DHT22;2705;41.410;2.160;2023-04-25T14:51:55;23.20;99.90
5364;DHT22;2705;41.410;2.160;2023-04-25T14:54:27;23.00;99.90
5364;DHT22;2705;41.410;2.160;2023-04-25T14:56:56;23.00;99.90
5364;DHT22;2705;41.410;2.160;2023-04-25T14:59:25;22.60;99.90
5364;DHT22;2705;41.410;2.160;2023-04-25T15:01:56;22.70;99.90
5364;DHT22;2705;41.410;2.160;2023-04-25T15:04:26;22.70;99.90
5364;DHT22;2705;41.410;2.160;2023-04-25T15:06:55;23.10;99.90
5364;DHT22;2705;41.410;2.160;2023-04-25T15:09:26;22.70;99.90
5364;DHT22;2705;41.410;2.160;2023-04-25T15:11:56;21.60;99.90
5364;DHT22;2705;41.410;2.160;2023-04-25T15:14:26;21.20;99.90
5364;DHT22;2705;41.410;2.160;2023-04-25T15:16:55;20.70;99.90
5364;DHT22;2705;41.410;2.160;2023-04-25T15:19:25;20.70;99.90
5364;DHT22;2705;41.410;2.160;2023-04-25T15:21:55;20.50;99.90
5364;DHT22;2705;41.410;2.160;2023-04-25T15:24:29;20.70;99.90
5364;DHT22;2705;41.410;2.160;2023-04-25T15:26:58;20.60;99.90
5364;DHT22;2705;41.410;2.160;2023-04-25T15:29:28;20.70;99.90
5364;DHT22;2705;41.410;2.160;2023-04-25T15:31:57;20.60;99.90
5364;DHT22;2705;41.410;2.160;2023-04-25T15:34:26;20.40;99.90
5364;DHT22;2705;41.410;2.160;2023-04-25T15:36:55;20.70;99.90
5364;DHT22;2705;41.410;2.160;2023-04-25T15:39:25;20.70;99.90
5364;DHT22;2705;41.410;2.160;2023-04-25T15:41:55;20.70;99.90
5364;DHT22;2705;41.410;2.160;2023-04-25T15:44:25;20.50;99.90
5364;DHT22;2705;41.410;2.160;2023-04-25T15:46:55;20.20;99.90
5364;DHT22;2705;41.410;2.160;2023-04-25T15:49:24;20.00;99.90
5364;DHT22;2705;41.410;2.160;2023-04-25T15:51:53;20.10;99.90
5364;DHT22;2705;41.410;2.160;2023-04-25T15:54:22;20.00;99.90
5364;DHT22;2705;41.410;2.160;2023-04-25T15:56:51;20.10;99.90
5364;DHT22;2705;41.410;2.160;2023-04-25T15:59:22;19.90;99.90
5364;DHT22;2705;41.410;2.160;2023-04-25T16:01:51;20.00;99.90
5364;DHT22;2705;41.410;2.160;2023-04-25T16:04:21;20.00;99.90
5364;DHT22;2705;41.410;2.160;2023-04-25T16:06:51;20.10;99.90
5364;DHT22;2705;41.410;2.160;2023-04-25T16:09:21;20.10;99.90
5364;DHT22;2705;41.410;2.160;2023-04-25T16:11:50;20.00;99.90
5364;DHT22;2705;41.410;2.160;2023-04-25T16:14:19;20.00;99.90
5364;DHT22;2705;41.410;2.160;2023-04-25T16:16:50;20.00;99.90
5364;DHT22;2705;41.410;2.160;2023-04-25T16:19:19;19.90;99.90
5364;DHT22;2705;41.410;2.160;2023-04-25T16:21:49;19.90;99.90
5364;DHT22;2705;41.410;2.160;2023-04-25T16:24:19;20.00;99.90
5364;DHT22;2705;41.410;2.160;2023-04-25T16:26:51;19.90;99.90
5364;DHT22;2705;41.410;2.160;2023-04-25T16:29:20;19.90;99.90
5364;DHT22;2705;41.410;2.160;2023-04-25T16:31:51;20.00;99.90
5364;DHT22;2705;41.410;2.160;2023-04-25T16:34:20;19.90;99.90
5364;DHT22;2705;41.410;2.160;2023-04-25T16:36:49;19.70;99.90
5364;DHT22;2705;41.410;2.160;2023-04-25T16:39:22;19.60;99.90
5364;DHT22;2705;41.410;2.160;2023-04-25T16:41:51;19.60;99.90
5364;DHT22;2705;41.410;2.160;2023-04-25T16:44:20;19.70;99.90